createdAt,value
2019-05-13T00:02:23.978Z,3.47
2019-05-13T00:04:56.052Z,3.20
2019-05-13T00:07:28.017Z,2.77
2019-05-13T00:09:59.959Z,2.80
2019-05-13T00:12:31.944Z,2.73
2019-05-13T00:15:04.225Z,3.20
2019-05-13T00:17:36.198Z,3.10
2019-05-13T00:20:08.127Z,3.30
2019-05-13T00:22:40.077Z,2.93
2019-05-13T00:25:14.292Z,2.77
2019-05-13T00:27:45.910Z,2.83
2019-05-13T00:30:17.860Z,2.77
2019-05-13T00:32:49.845Z,3.00
2019-05-13T00:35:23.334Z,2.70
2019-05-13T00:37:55.439Z,2.97
2019-05-13T00:40:27.369Z,2.80
2019-05-13T00:42:59.358Z,2.57
2019-05-13T00:45:33.638Z,2.70
2019-05-13T00:48:05.184Z,2.37
2019-05-13T00:50:37.117Z,2.80
2019-05-13T00:53:09.125Z,2.60
2019-05-13T00:55:41.570Z,2.73
2019-05-13T00:58:14.116Z,2.50
2019-05-13T01:00:46.278Z,2.60
2019-05-13T01:03:18.217Z,3.13
2019-05-13T01:05:50.161Z,2.53
2019-05-13T01:08:23.667Z,3.17
2019-05-13T01:10:55.721Z,2.80
2019-05-13T01:13:27.686Z,2.80
2019-05-13T01:15:59.645Z,3.00
2019-05-13T01:18:33.828Z,2.73
2019-05-13T01:21:05.497Z,2.80
2019-05-13T01:23:37.463Z,2.60
2019-05-13T01:26:09.416Z,2.90
2019-05-13T01:28:43.489Z,2.70
2019-05-13T01:31:15.231Z,2.47
2019-05-13T01:33:47.197Z,2.70
2019-05-13T01:36:19.157Z,3.00
2019-05-13T01:38:51.175Z,3.00
2019-05-13T01:41:24.015Z,2.83
2019-05-13T01:43:56.205Z,2.50
2019-05-13T01:46:28.152Z,3.30
2019-05-13T01:49:00.122Z,3.00
2019-05-13T01:51:33.461Z,2.80
2019-05-13T01:54:05.474Z,2.80
2019-05-13T01:56:37.419Z,3.13
2019-05-13T01:59:09.373Z,2.90
2019-05-13T02:01:44.054Z,3.00
2019-05-13T02:04:15.230Z,2.87
2019-05-13T02:06:47.176Z,3.20
2019-05-13T02:09:19.189Z,2.77
2019-05-13T02:11:53.684Z,2.63
2019-05-13T02:14:25.031Z,2.60
2019-05-13T02:16:56.957Z,2.90
2019-05-13T02:19:28.921Z,3.00
2019-05-13T02:22:00.868Z,2.77
2019-05-13T02:24:34.189Z,2.83
2019-05-13T02:27:06.389Z,2.97
2019-05-13T02:29:38.381Z,3.00
2019-05-13T02:32:13.316Z,2.97
2019-05-13T02:34:44.208Z,2.93
2019-05-13T02:37:16.191Z,3.37
2019-05-13T02:39:48.160Z,3.73
2019-05-13T02:42:22.875Z,3.10
2019-05-13T02:44:54.034Z,3.93
2019-05-13T02:47:26.011Z,5.10
2019-05-13T02:50:00.727Z,4.13
2019-05-13T02:52:33.422Z,3.73
2019-05-13T02:55:06.196Z,3.13
2019-05-13T02:57:38.172Z,3.33
2019-05-13T03:00:12.962Z,3.00
2019-05-13T03:02:44.336Z,3.30
2019-05-13T03:05:16.801Z,3.03
2019-05-13T03:07:48.746Z,3.20
2019-05-13T03:10:22.419Z,3.40
2019-05-13T03:12:54.565Z,3.50
2019-05-13T03:15:28.449Z,3.00
2019-05-13T03:18:04.583Z,3.97
2019-05-13T03:20:36.540Z,3.40
2019-05-13T03:23:08.505Z,4.13
2019-05-13T03:25:42.959Z,4.60
2019-05-13T03:28:14.289Z,4.00
2019-05-13T03:30:46.606Z,3.67
2019-05-13T03:33:21.949Z,4.10
2019-05-13T03:35:56.015Z,3.80
2019-05-13T03:38:27.091Z,4.20
2019-05-13T03:41:03.084Z,3.50
2019-05-13T03:43:36.635Z,3.07
2019-05-13T03:46:12.206Z,3.73
2019-05-13T03:48:45.192Z,3.73
2019-05-13T03:51:17.150Z,3.70
2019-05-13T03:53:49.152Z,3.93
2019-05-13T03:56:23.570Z,3.57
2019-05-13T03:58:55.112Z,3.50
2019-05-13T04:01:27.049Z,4.13
2019-05-13T04:03:59.025Z,4.50
2019-05-13T04:06:32.391Z,4.07
2019-05-13T04:09:20.862Z,4.00
2019-05-13T04:11:41.578Z,4.07
2019-05-13T04:14:13.150Z,3.63
2019-05-13T04:16:45.088Z,4.00
2019-05-13T04:19:17.067Z,3.57
2019-05-13T04:21:49.296Z,3.70
2019-05-13T04:24:22.968Z,4.03
2019-05-13T04:26:55.146Z,3.73
2019-05-13T04:29:27.114Z,4.23
2019-05-13T04:32:01.995Z,4.00
2019-05-13T04:34:33.872Z,3.87
2019-05-13T04:37:06.195Z,3.57
2019-05-13T04:39:47.634Z,3.47
2019-05-13T04:42:12.469Z,4.33
2019-05-13T04:44:44.595Z,3.50
2019-05-13T04:47:16.544Z,4.03
2019-05-13T04:49:48.501Z,3.93
2019-05-13T04:52:22.314Z,4.00
2019-05-13T04:54:54.376Z,3.87
2019-05-13T04:57:26.330Z,4.67
2019-05-13T04:59:58.315Z,4.27
2019-05-13T05:03:22.758Z,6.17
2019-05-13T05:06:07.488Z,6.03
2019-05-13T05:09:05.560Z,4.67
2019-05-13T05:12:33.819Z,4.20
2019-05-13T05:15:32.903Z,3.70
2019-05-13T05:18:35.967Z,3.50
2019-05-13T05:21:15.968Z,4.40
2019-05-13T05:24:44.755Z,4.10
2019-05-13T05:27:58.106Z,4.17
2019-05-13T05:31:28.917Z,3.83
2019-05-13T05:34:21.793Z,3.80
2019-05-13T05:37:33.828Z,3.27
2019-05-13T05:40:06.024Z,3.70
2019-05-13T05:42:41.275Z,3.30
2019-05-13T05:45:16.938Z,3.20
2019-05-13T05:47:51.194Z,3.60
2019-05-13T05:50:23.176Z,3.30
2019-05-13T05:52:55.624Z,3.17
2019-05-13T05:55:29.227Z,2.80
2019-05-13T05:58:02.005Z,2.97
2019-05-13T06:00:36.437Z,3.00
2019-05-13T06:03:08.371Z,2.80
2019-05-13T06:05:41.900Z,3.30
2019-05-13T06:08:17.480Z,3.20
2019-05-13T06:10:52.917Z,2.80
2019-05-13T06:13:22.112Z,3.12
2019-05-13T06:15:54.088Z,2.80
2019-05-13T06:18:26.119Z,2.15
2019-05-13T06:20:58.105Z,2.45
2019-05-13T06:23:31.261Z,2.47
2019-05-13T06:26:03.471Z,2.20
2019-05-13T06:28:47.515Z,2.35
2019-05-13T06:31:21.570Z,1.85
2019-05-13T06:33:53.392Z,2.50
2019-05-13T06:36:25.762Z,2.47
2019-05-13T06:38:57.721Z,2.42
2019-05-13T06:41:32.182Z,2.40
2019-05-13T06:44:03.626Z,2.45
2019-05-13T06:46:35.593Z,2.33
2019-05-13T06:49:07.554Z,2.20
2019-05-13T06:51:41.761Z,2.47
2019-05-13T06:54:13.425Z,2.75
2019-05-13T06:56:45.402Z,2.20
2019-05-13T06:59:17.390Z,2.33
2019-05-13T07:01:51.387Z,2.37
2019-05-13T07:04:23.263Z,2.50
2019-05-13T07:07:08.731Z,2.60
2019-05-13T07:09:32.003Z,1.85
2019-05-13T07:12:03.636Z,2.00
2019-05-13T07:14:35.819Z,2.20
2019-05-13T07:17:07.769Z,2.20
2019-05-13T07:19:41.502Z,2.50
2019-05-13T07:22:13.707Z,2.08
2019-05-13T07:24:45.741Z,2.12
2019-05-13T07:27:17.726Z,2.15
2019-05-13T07:29:51.489Z,2.20
2019-05-13T07:32:23.588Z,2.47
2019-05-13T07:34:55.572Z,1.90
2019-05-13T07:37:27.941Z,2.00
2019-05-13T07:40:02.565Z,1.90
2019-05-13T07:42:33.880Z,2.30
2019-05-13T07:45:06.256Z,1.95
2019-05-13T07:47:38.205Z,2.40
2019-05-13T07:50:12.612Z,2.25
2019-05-13T07:52:44.102Z,2.17
2019-05-13T07:55:16.091Z,2.37
2019-05-13T07:57:48.051Z,2.25
2019-05-13T08:00:21.866Z,2.20
2019-05-13T08:02:53.799Z,2.00
2019-05-13T08:05:25.768Z,2.17
2019-05-13T08:07:57.742Z,1.95
2019-05-13T08:10:31.909Z,2.15
2019-05-13T08:13:03.638Z,2.30
2019-05-13T08:15:35.694Z,2.45
2019-05-13T08:18:07.723Z,1.90
2019-05-13T08:20:42.029Z,2.10
2019-05-13T08:23:13.611Z,2.27
2019-05-13T08:25:45.587Z,2.42
2019-05-13T08:28:17.558Z,2.10
2019-05-13T08:30:51.671Z,2.20
2019-05-13T08:33:23.470Z,2.25
2019-05-13T08:35:58.747Z,2.30
2019-05-13T08:38:31.703Z,2.25
2019-05-13T08:41:03.242Z,2.85
2019-05-13T08:43:35.203Z,2.40
2019-05-13T08:46:07.304Z,2.90
2019-05-13T08:48:39.271Z,2.30
2019-05-13T08:51:11.717Z,2.22
2019-05-13T08:53:43.983Z,2.30
2019-05-13T08:56:16.047Z,2.70
2019-05-13T08:58:47.994Z,2.40
2019-05-13T09:01:22.522Z,2.33
2019-05-13T09:03:53.898Z,2.40
2019-05-13T09:06:25.929Z,2.20
2019-05-13T09:08:57.943Z,2.33
2019-05-13T09:11:31.484Z,2.30
2019-05-13T09:14:03.969Z,2.20
2019-05-13T09:16:35.973Z,2.40
2019-05-13T09:19:07.975Z,2.20
2019-05-13T09:21:42.276Z,2.12
2019-05-13T09:24:24.406Z,2.02
2019-05-13T09:26:47.784Z,2.10
2019-05-13T09:29:22.401Z,2.40
2019-05-13T09:31:53.751Z,2.05
2019-05-13T09:34:25.774Z,1.90
2019-05-13T09:36:57.740Z,1.80
2019-05-13T09:39:32.065Z,2.20
2019-05-13T09:42:03.614Z,2.00
2019-05-13T09:44:35.561Z,2.42
2019-05-13T09:47:07.535Z,2.27
2019-05-13T09:49:41.867Z,1.97
2019-05-13T09:52:13.436Z,2.30
2019-05-13T09:54:45.403Z,2.80
2019-05-13T09:57:17.468Z,2.20
2019-05-13T09:59:49.411Z,2.30
2019-05-13T10:02:21.563Z,2.25
2019-05-13T10:04:53.496Z,2.45
2019-05-13T10:07:25.491Z,1.87
2019-05-13T10:09:57.454Z,2.37
2019-05-13T10:12:31.915Z,2.10
2019-05-13T10:15:03.835Z,1.92
2019-05-13T10:17:35.843Z,2.37
2019-05-13T10:20:07.857Z,2.45
2019-05-13T10:22:41.724Z,2.22
2019-05-13T10:25:16.656Z,2.12
2019-05-13T10:27:48.610Z,2.30
2019-05-13T10:30:21.775Z,2.52
2019-05-13T10:32:53.871Z,2.10
2019-05-13T10:35:26.149Z,2.05
2019-05-13T10:37:58.154Z,2.08
2019-05-13T10:40:32.737Z,2.25
2019-05-13T10:43:04.048Z,1.90
2019-05-13T10:45:36.431Z,2.52
2019-05-13T10:48:10.461Z,2.08
2019-05-13T10:50:42.418Z,2.62
2019-05-13T10:53:14.378Z,2.10
2019-05-13T10:55:46.418Z,2.27
2019-05-13T10:58:18.390Z,2.20
2019-05-13T11:00:53.547Z,2.35
2019-05-13T11:03:25.903Z,2.35
2019-05-13T11:05:57.902Z,2.05
2019-05-13T11:08:32.497Z,2.30
2019-05-13T11:11:03.745Z,2.08
2019-05-13T11:13:52.110Z,2.15
2019-05-13T11:16:12.169Z,1.72
2019-05-13T11:18:43.682Z,2.00
2019-05-13T11:21:15.760Z,2.30
2019-05-13T11:23:47.762Z,2.27
2019-05-13T11:26:21.954Z,2.67
2019-05-13T11:28:53.890Z,2.20
2019-05-13T11:31:25.914Z,2.12
2019-05-13T11:33:57.879Z,2.12
2019-05-13T11:36:32.614Z,2.20
2019-05-13T11:39:05.991Z,2.50
2019-05-13T11:41:37.985Z,2.15
2019-05-13T11:44:16.174Z,2.92
2019-05-13T11:46:43.911Z,2.72
2019-05-13T11:49:15.886Z,2.92
2019-05-13T11:51:48.181Z,2.60
2019-05-13T11:54:22.386Z,2.40
2019-05-13T11:57:01.684Z,2.42
2019-05-13T11:59:28.035Z,2.03
2019-05-13T12:02:03.962Z,2.33
2019-05-13T12:04:34.877Z,2.10
2019-05-13T12:07:07.103Z,2.22
2019-05-13T12:09:39.093Z,2.50
2019-05-13T12:12:13.213Z,2.50
2019-05-13T12:15:16.218Z,2.45
2019-05-13T12:17:18.871Z,2.30
2019-05-13T12:19:53.989Z,2.60
2019-05-13T12:22:24.707Z,2.50
2019-05-13T12:24:56.690Z,2.77
2019-05-13T12:27:31.580Z,2.47
2019-05-13T12:30:03.274Z,2.50
2019-05-13T12:32:35.352Z,2.27
2019-05-13T12:35:07.302Z,2.40
2019-05-13T12:37:41.911Z,2.43
2019-05-13T12:40:13.451Z,2.23
2019-05-13T12:42:47.253Z,2.20
2019-05-13T12:45:22.243Z,2.50
2019-05-13T12:47:53.255Z,2.20
2019-05-13T12:50:25.642Z,2.50
2019-05-13T12:52:57.666Z,2.30
2019-05-13T12:55:32.842Z,2.45
2019-05-13T12:58:03.578Z,2.33
2019-05-13T13:00:35.581Z,2.33
2019-05-13T13:03:07.546Z,1.95
2019-05-13T13:05:42.914Z,2.25
2019-05-13T13:08:24.675Z,2.03
2019-05-13T13:10:47.280Z,2.20
2019-05-13T13:13:26.819Z,2.03
2019-05-13T13:15:53.527Z,2.10
2019-05-13T13:18:25.498Z,1.73
2019-05-13T13:21:05.008Z,2.17
2019-05-13T13:23:34.007Z,2.03
2019-05-13T13:26:13.966Z,2.43
2019-05-13T13:28:43.143Z,2.50
2019-05-13T13:31:13.316Z,2.47
2019-05-13T13:33:46.334Z,2.22
2019-05-13T13:36:18.670Z,1.87
2019-05-13T13:38:56.194Z,1.83
2019-05-13T13:41:27.543Z,1.98
2019-05-13T13:44:04.718Z,2.13
2019-05-13T13:46:42.456Z,2.17
2019-05-13T13:49:07.322Z,1.90
2019-05-13T13:51:39.293Z,1.90
2019-05-13T13:54:11.287Z,1.80
2019-05-13T13:56:44.701Z,1.95
2019-05-13T13:59:16.984Z,2.33
2019-05-13T14:01:54.514Z,1.80
2019-05-13T14:04:22.894Z,2.20
2019-05-13T14:09:28.785Z,2.30
2019-05-13T14:12:02.017Z,2.72
2019-05-13T14:14:34.272Z,2.57
2019-05-13T14:17:06.272Z,2.90
2019-05-13T14:19:38.262Z,3.98
2019-05-13T14:22:12.554Z,2.40
2019-05-13T14:24:44.187Z,2.42
2019-05-13T14:27:16.227Z,2.45
2019-05-13T14:29:49.405Z,2.83
2019-05-13T14:32:22.530Z,3.02
2019-05-13T14:34:54.688Z,2.90
2019-05-13T14:37:27.091Z,2.15
2019-05-13T14:39:59.075Z,1.82
2019-05-13T14:42:32.210Z,2.15
2019-05-13T14:45:04.420Z,1.82
2019-05-13T14:47:36.381Z,1.72
2019-05-13T14:50:08.997Z,2.25
2019-05-13T14:52:41.674Z,2.02
2019-05-13T14:55:13.899Z,2.10
2019-05-13T14:57:45.877Z,2.30
2019-05-13T15:00:17.848Z,1.95
2019-05-13T15:02:51.834Z,1.87
2019-05-13T15:05:23.724Z,1.82
2019-05-13T15:07:55.709Z,1.92
2019-05-13T15:10:27.684Z,2.02
2019-05-13T15:13:02.939Z,2.13
2019-05-13T15:15:33.910Z,1.80
2019-05-13T15:18:05.882Z,1.90
2019-05-13T15:20:37.849Z,2.30
2019-05-13T15:23:11.963Z,1.82
2019-05-13T15:25:43.700Z,2.10
2019-05-13T15:28:15.700Z,1.83
2019-05-13T15:30:47.670Z,1.93
2019-05-13T15:33:21.524Z,2.00
2019-05-13T15:35:53.590Z,2.00
2019-05-13T15:38:25.615Z,1.90
2019-05-13T15:40:57.702Z,1.80
2019-05-13T15:43:31.839Z,2.10
2019-05-13T15:46:03.542Z,1.97
2019-05-13T15:48:35.883Z,2.10
2019-05-13T15:51:07.868Z,2.37
2019-05-13T15:53:39.926Z,2.03
2019-05-13T15:56:12.583Z,1.93
2019-05-13T15:58:44.900Z,1.67
2019-05-13T16:01:17.033Z,2.47
2019-05-13T16:03:49.027Z,1.80
2019-05-13T16:06:21.032Z,2.00
2019-05-13T16:08:53.055Z,1.90
2019-05-13T16:11:25.342Z,1.92
2019-05-13T16:13:57.358Z,1.67
2019-05-13T16:16:31.912Z,1.80
2019-05-13T16:19:03.675Z,1.80
2019-05-13T16:21:35.689Z,2.00
2019-05-13T16:24:07.948Z,1.63
2019-05-13T16:26:42.396Z,1.63
2019-05-13T16:29:13.931Z,2.10
2019-05-13T16:31:45.965Z,1.67
2019-05-13T16:34:18.052Z,1.80
2019-05-13T16:36:52.822Z,1.77
2019-05-13T16:39:23.963Z,1.93
2019-05-13T16:41:55.981Z,1.90
2019-05-13T16:44:27.987Z,1.87
2019-05-13T16:47:01.510Z,2.17
2019-05-13T16:49:33.778Z,1.90
2019-05-13T16:52:05.792Z,1.77
2019-05-13T16:54:37.867Z,2.10
2019-05-13T16:57:09.900Z,1.83
2019-05-13T16:59:41.907Z,2.45
2019-05-13T17:02:13.919Z,1.90
2019-05-13T17:04:45.937Z,2.00
2019-05-13T17:07:17.959Z,2.30
2019-05-13T17:09:51.942Z,2.10
2019-05-13T17:12:23.909Z,2.07
2019-05-13T17:14:55.969Z,2.10
2019-05-13T17:17:27.992Z,1.97
2019-05-13T17:20:02.223Z,2.20
2019-05-13T17:22:33.930Z,2.07
2019-05-13T17:25:06.457Z,2.10
2019-05-13T17:27:38.453Z,1.77
2019-05-13T17:30:11.602Z,2.03
2019-05-13T17:32:43.789Z,1.73
2019-05-13T17:35:15.845Z,1.87
2019-05-13T17:37:47.948Z,1.80
2019-05-13T17:40:22.282Z,1.90
2019-05-13T17:42:53.891Z,1.37
2019-05-13T17:45:26.020Z,1.80
2019-05-13T17:47:58.059Z,1.80
2019-05-13T17:50:31.486Z,2.20
2019-05-13T17:53:03.661Z,1.77
2019-05-13T17:55:35.808Z,1.83
2019-05-13T17:58:07.842Z,1.80
2019-05-13T18:00:41.512Z,2.00
2019-05-13T18:03:13.739Z,2.20
2019-05-13T18:05:45.780Z,1.80
2019-05-13T18:08:17.837Z,2.10
2019-05-13T18:10:51.424Z,2.00
2019-05-13T18:13:23.685Z,1.73
2019-05-13T18:15:55.768Z,2.20
2019-05-13T18:18:40.513Z,2.00
2019-05-13T18:21:01.754Z,1.60
2019-05-13T18:23:33.779Z,1.90
2019-05-13T18:26:05.748Z,1.90
2019-05-13T18:28:37.829Z,1.70
2019-05-13T18:31:12.089Z,1.90
2019-05-13T18:33:43.806Z,2.10
2019-05-13T18:36:15.832Z,2.30
2019-05-13T18:38:47.849Z,2.30
2019-05-13T18:41:21.379Z,2.00
2019-05-13T18:43:55.053Z,2.20
2019-05-13T18:46:27.164Z,2.17
2019-05-13T18:49:02.005Z,1.80
2019-05-13T18:51:33.167Z,1.90
2019-05-13T18:54:05.214Z,1.73
2019-05-13T18:56:37.192Z,2.03
2019-05-13T18:59:09.208Z,2.37
2019-05-13T19:01:41.216Z,2.00
2019-05-13T19:04:13.343Z,2.10
2019-05-13T19:06:45.372Z,2.53
2019-05-13T19:09:17.485Z,1.77
2019-05-13T19:11:51.493Z,2.40
2019-05-13T19:14:23.441Z,2.30
2019-05-13T19:16:55.623Z,2.10
2019-05-13T19:19:27.650Z,2.13
2019-05-13T19:22:01.931Z,2.10
2019-05-13T19:24:33.565Z,1.70
2019-05-13T19:27:05.550Z,2.00
2019-05-13T19:29:37.629Z,2.17
2019-05-13T19:32:09.641Z,2.23
2019-05-13T19:34:42.346Z,2.00
2019-05-13T19:37:14.690Z,2.10
2019-05-13T19:39:46.743Z,1.97
2019-05-13T19:42:18.783Z,2.20
2019-05-13T19:44:51.133Z,2.37
2019-05-13T19:47:23.289Z,2.43
2019-05-13T19:49:55.449Z,2.40
2019-05-13T19:52:27.566Z,2.60
2019-05-13T19:55:01.786Z,2.10
2019-05-13T19:57:33.730Z,2.53
2019-05-13T20:00:10.005Z,2.40
2019-05-13T20:02:42.022Z,2.17
2019-05-13T20:05:13.927Z,2.20
2019-05-13T20:07:46.026Z,2.30
2019-05-13T20:10:18.149Z,2.13
2019-05-13T20:12:51.309Z,2.33
2019-05-13T20:15:23.606Z,2.20
2019-05-13T20:17:55.639Z,2.53
2019-05-13T20:20:27.685Z,2.20
2019-05-13T20:23:01.392Z,2.53
2019-05-13T20:25:33.633Z,2.40
2019-05-13T20:28:05.702Z,2.57
2019-05-13T20:30:37.913Z,2.10
2019-05-13T20:33:11.950Z,2.17
2019-05-13T20:35:43.942Z,2.40
2019-05-13T20:38:16.086Z,2.00
2019-05-13T20:40:48.090Z,2.37
2019-05-13T20:43:22.514Z,2.30
2019-05-13T20:45:54.255Z,2.20
2019-05-13T20:48:26.272Z,2.20
2019-05-13T20:50:58.297Z,2.30
2019-05-13T20:53:31.082Z,2.50
2019-05-13T20:56:03.260Z,2.50
2019-05-13T20:58:35.289Z,2.20
2019-05-13T21:01:07.327Z,2.93
2019-05-13T21:03:41.875Z,2.50
2019-05-13T21:06:13.272Z,2.50
2019-05-13T21:08:45.308Z,2.47
2019-05-13T21:11:17.327Z,2.20
2019-05-13T21:13:51.607Z,2.60
2019-05-13T21:16:23.204Z,2.57
2019-05-13T21:18:55.206Z,2.73
2019-05-13T21:21:27.193Z,2.57
2019-05-13T21:24:01.412Z,2.73
2019-05-13T21:26:33.087Z,2.60
2019-05-13T21:29:05.115Z,2.90
2019-05-13T21:31:37.081Z,3.53
2019-05-13T21:34:09.111Z,2.43
2019-05-13T21:36:41.356Z,2.73
2019-05-13T21:39:13.410Z,2.50
2019-05-13T21:41:45.454Z,3.00
2019-05-13T21:44:17.489Z,3.30
2019-05-13T21:46:51.461Z,3.10
2019-05-13T21:49:23.379Z,2.90
2019-05-13T21:51:55.367Z,2.17
2019-05-13T21:54:27.412Z,2.60
2019-05-13T21:56:59.430Z,2.30
2019-05-13T21:59:32.075Z,2.50
2019-05-13T22:02:04.957Z,2.37
2019-05-13T22:04:36.982Z,2.27
2019-05-13T22:07:08.977Z,2.37
2019-05-13T22:09:42.247Z,2.67
2019-05-13T22:12:14.396Z,2.63
2019-05-13T22:14:46.396Z,2.23
2019-05-13T22:17:18.405Z,2.70
2019-05-13T22:19:51.274Z,2.70
2019-05-13T22:22:23.401Z,2.33
2019-05-13T22:24:55.412Z,2.47
2019-05-13T22:27:27.465Z,2.40
2019-05-13T22:30:01.327Z,2.90
2019-05-13T22:32:33.363Z,2.57
2019-05-13T22:35:05.536Z,2.83
2019-05-13T22:37:37.520Z,2.70
2019-05-13T22:40:11.229Z,2.30
2019-05-13T22:42:43.367Z,2.53
2019-05-13T22:45:16.973Z,2.40
2019-05-13T22:47:48.981Z,2.33
2019-05-13T22:50:21.811Z,2.30
2019-05-13T22:52:53.966Z,2.80
2019-05-13T22:55:25.916Z,2.60
2019-05-13T22:57:57.921Z,2.73
2019-05-13T23:00:31.718Z,2.53
2019-05-13T23:03:03.884Z,3.00
2019-05-13T23:05:35.872Z,2.73
2019-05-13T23:08:07.875Z,2.30
2019-05-13T23:10:41.942Z,3.20
2019-05-13T23:13:13.766Z,2.47
2019-05-13T23:15:45.747Z,2.93
2019-05-13T23:18:17.771Z,2.80
2019-05-13T23:20:51.609Z,2.87
2019-05-13T23:23:23.672Z,3.30
2019-05-13T23:25:57.027Z,3.00
2019-05-13T23:28:29.345Z,3.17
2019-05-13T23:31:01.828Z,3.20
2019-05-13T23:33:34.042Z,3.00
2019-05-13T23:36:06.018Z,3.17
2019-05-13T23:38:38.025Z,3.17
2019-05-13T23:41:11.492Z,2.90
2019-05-13T23:43:43.691Z,3.10
2019-05-13T23:46:15.666Z,3.27
2019-05-13T23:48:47.639Z,2.70
2019-05-13T23:51:21.508Z,2.90
2019-05-13T23:53:53.526Z,3.30
2019-05-13T23:56:25.501Z,2.97
2019-05-13T23:58:57.491Z,3.53
